createdAt,value
2022-12-13T00:00:13.164Z,81.60
2022-12-13T00:01:13.693Z,81.20
2022-12-13T00:02:13.716Z,81.10
2022-12-13T00:03:13.940Z,80.20
2022-12-13T00:04:12.937Z,80.60
2022-12-13T00:05:13.506Z,80.80
2022-12-13T00:06:13.795Z,81.40
2022-12-13T00:08:14.137Z,81.80
2022-12-13T00:09:13.098Z,81.50
2022-12-13T00:10:12.971Z,81.40
2022-12-13T00:11:17.943Z,81.40
2022-12-13T00:12:13.060Z,81.30
2022-12-13T00:13:13.621Z,80.80
2022-12-13T00:14:13.582Z,81.00
2022-12-13T00:15:14.126Z,80.00
2022-12-13T00:16:18.834Z,79.90
2022-12-13T00:17:13.827Z,79.90
2022-12-13T00:18:13.763Z,80.00
2022-12-13T00:19:13.738Z,79.50
2022-12-13T00:20:13.933Z,80.20
2022-12-13T00:21:12.851Z,80.40
2022-12-13T00:22:13.802Z,80.10
2022-12-13T00:23:13.986Z,80.10
2022-12-13T00:24:13.196Z,80.20
2022-12-13T00:25:13.695Z,80.50
2022-12-13T00:26:13.358Z,80.50
2022-12-13T00:27:13.332Z,80.80
2022-12-13T00:28:13.441Z,81.30
2022-12-13T00:29:13.411Z,81.50
2022-12-13T00:30:13.690Z,81.60
2022-12-13T00:31:53.359Z,81.40
2022-12-13T00:32:13.660Z,81.30
2022-12-13T00:33:13.766Z,81.30
2022-12-13T00:34:13.911Z,81.60
2022-12-13T00:35:13.065Z,81.80
2022-12-13T00:36:17.364Z,81.60
2022-12-13T00:37:13.301Z,81.70
2022-12-13T00:38:13.458Z,81.90
2022-12-13T00:39:13.622Z,82.00
2022-12-13T00:40:13.537Z,81.90
2022-12-13T00:41:13.485Z,81.30
2022-12-13T00:42:13.371Z,81.20
2022-12-13T00:43:13.360Z,81.30
2022-12-13T00:44:13.411Z,81.60
2022-12-13T00:45:13.923Z,81.40
2022-12-13T00:46:13.478Z,81.10
2022-12-13T00:47:13.457Z,80.80
2022-12-13T00:48:13.396Z,81.10
2022-12-13T00:49:13.271Z,81.60
2022-12-13T00:50:13.209Z,81.40
2022-12-13T00:51:13.155Z,81.00
2022-12-13T00:52:13.062Z,81.10
2022-12-13T00:53:13.117Z,80.70
2022-12-13T00:54:13.421Z,80.80
2022-12-13T00:55:13.611Z,80.80
2022-12-13T00:56:13.895Z,80.90
2022-12-13T00:57:13.886Z,81.40
2022-12-13T00:58:14.015Z,81.40
2022-12-13T00:59:13.121Z,79.90
2022-12-13T01:00:13.053Z,79.70
2022-12-13T01:01:13.381Z,79.30
2022-12-13T01:02:18.479Z,79.30
2022-12-13T01:03:13.494Z,79.40
2022-12-13T01:04:13.576Z,78.90
2022-12-13T01:05:14.225Z,78.20
2022-12-13T01:06:15.200Z,77.90
2022-12-13T01:07:13.315Z,77.70
2022-12-13T01:08:13.451Z,77.90
2022-12-13T01:09:13.674Z,77.70
2022-12-13T01:10:13.547Z,79.00
2022-12-13T01:11:13.796Z,80.20
2022-12-13T01:12:13.707Z,80.60
2022-12-13T01:13:13.668Z,81.30
2022-12-13T01:14:14.035Z,81.10
2022-12-13T01:15:13.293Z,81.30
2022-12-13T01:16:13.685Z,81.90
2022-12-13T01:17:13.655Z,81.90
2022-12-13T01:18:14.122Z,81.80
2022-12-13T01:19:13.122Z,81.60
2022-12-13T01:20:13.394Z,81.10
2022-12-13T01:21:13.331Z,81.10
2022-12-13T01:22:13.256Z,81.00
2022-12-13T01:23:13.173Z,81.90
2022-12-13T01:24:18.193Z,81.60
2022-12-13T01:25:13.487Z,81.80
2022-12-13T01:26:13.563Z,81.80
2022-12-13T01:27:13.669Z,81.70
2022-12-13T01:28:13.864Z,81.80
2022-12-13T01:29:13.685Z,81.60
2022-12-13T01:30:18.571Z,81.30
2022-12-13T01:31:13.701Z,81.50
2022-12-13T01:32:14.056Z,81.60
2022-12-13T01:33:14.139Z,81.70
2022-12-13T01:34:13.591Z,81.70
2022-12-13T01:35:14.061Z,82.10
2022-12-13T01:36:13.190Z,81.80
2022-12-13T01:37:13.233Z,80.80
2022-12-13T01:38:15.655Z,81.10
2022-12-13T01:39:15.175Z,81.00
2022-12-13T01:40:18.591Z,81.20
2022-12-13T01:41:17.492Z,81.60
2022-12-13T01:42:13.478Z,81.20
2022-12-13T01:43:14.246Z,81.50
2022-12-13T01:44:13.354Z,81.70
2022-12-13T01:45:14.046Z,81.50
2022-12-13T01:46:13.304Z,80.90
2022-12-13T01:47:14.198Z,80.90
2022-12-13T01:48:13.821Z,80.90
2022-12-13T01:49:19.208Z,81.10
2022-12-13T01:50:13.753Z,81.40
2022-12-13T01:51:13.937Z,81.20
2022-12-13T01:52:13.269Z,81.20
2022-12-13T01:53:13.441Z,81.40
2022-12-13T01:54:13.373Z,81.20
2022-12-13T01:56:18.442Z,82.00
2022-12-13T01:57:13.673Z,81.50
2022-12-13T01:58:13.663Z,81.00
2022-12-13T01:59:14.003Z,81.80
2022-12-13T02:00:12.911Z,82.00
2022-12-13T02:01:13.052Z,81.80
2022-12-13T02:02:13.323Z,82.10
2022-12-13T02:03:20.888Z,81.90
2022-12-13T02:04:14.200Z,81.90
2022-12-13T02:05:18.634Z,81.90
2022-12-13T02:06:12.861Z,81.70
2022-12-13T02:07:13.906Z,81.40
2022-12-13T02:08:13.405Z,82.10
2022-12-13T02:09:13.409Z,82.00
2022-12-13T02:10:13.358Z,81.80
2022-12-13T02:11:13.317Z,82.50
2022-12-13T02:12:13.686Z,82.80
2022-12-13T02:13:13.494Z,82.30
2022-12-13T02:14:13.399Z,82.10
2022-12-13T02:15:14.166Z,81.90
2022-12-13T02:16:13.482Z,81.80
2022-12-13T02:17:13.482Z,81.40
2022-12-13T02:18:18.662Z,81.30
2022-12-13T02:19:13.713Z,81.40
2022-12-13T02:20:21.640Z,81.70
2022-12-13T02:21:13.428Z,82.10
2022-12-13T02:22:13.552Z,81.40
2022-12-13T02:23:13.870Z,81.50
2022-12-13T02:24:13.925Z,81.60
2022-12-13T02:25:13.268Z,82.00
2022-12-13T02:26:13.639Z,82.50
2022-12-13T02:27:13.630Z,82.20
2022-12-13T02:28:31.605Z,82.50
2022-12-13T02:29:13.298Z,82.30
2022-12-13T02:30:13.503Z,82.00
2022-12-13T02:31:13.778Z,82.20
2022-12-13T02:32:13.789Z,82.20
2022-12-13T02:33:13.753Z,81.80
2022-12-13T02:34:13.682Z,81.70
2022-12-13T02:35:13.983Z,82.30
2022-12-13T02:36:13.264Z,82.60
2022-12-13T02:37:18.295Z,82.50
2022-12-13T02:38:13.529Z,82.40
2022-12-13T02:39:13.860Z,82.10
2022-12-13T02:40:13.755Z,81.80
2022-12-13T02:41:14.124Z,80.90
2022-12-13T02:42:21.444Z,81.90
2022-12-13T02:43:13.167Z,82.50
2022-12-13T02:44:22.271Z,83.00
2022-12-13T02:45:20.118Z,82.40
2022-12-13T02:46:18.697Z,82.30
2022-12-13T02:47:22.261Z,81.90
2022-12-13T02:48:13.851Z,82.10
2022-12-13T02:49:12.921Z,82.20
2022-12-13T02:50:12.824Z,81.90
2022-12-13T02:51:13.650Z,82.10
2022-12-13T02:52:13.563Z,81.40
2022-12-13T02:53:18.208Z,81.20
2022-12-13T02:54:13.180Z,81.50
2022-12-13T02:55:13.848Z,81.60
2022-12-13T02:56:12.867Z,81.80
2022-12-13T02:57:13.666Z,81.90
2022-12-13T02:58:12.782Z,81.70
2022-12-13T02:59:13.655Z,82.20
2022-12-13T03:00:13.886Z,82.40
2022-12-13T03:01:28.847Z,81.80
2022-12-13T03:02:13.869Z,81.70
2022-12-13T03:03:13.722Z,82.20
2022-12-13T03:04:14.013Z,81.90
2022-12-13T03:05:13.478Z,82.00
2022-12-13T03:06:13.677Z,81.50
2022-12-13T03:07:13.743Z,79.90
2022-12-13T03:08:14.225Z,78.90
2022-12-13T03:09:13.265Z,78.30
2022-12-13T03:10:13.134Z,78.00
2022-12-13T03:11:13.154Z,77.70
2022-12-13T03:12:13.059Z,77.60
2022-12-13T03:13:13.030Z,76.80
2022-12-13T03:14:12.932Z,76.70
2022-12-13T03:15:13.345Z,76.80
2022-12-13T03:16:13.586Z,76.50
2022-12-13T03:17:13.911Z,76.20
2022-12-13T03:18:13.259Z,76.70
2022-12-13T03:19:13.209Z,78.10
2022-12-13T03:20:23.234Z,79.30
2022-12-13T03:21:13.669Z,80.00
2022-12-13T03:22:14.054Z,80.40
2022-12-13T03:23:12.962Z,80.60
2022-12-13T03:24:12.913Z,80.90
2022-12-13T03:25:13.266Z,80.60
2022-12-13T03:26:13.108Z,81.10
2022-12-13T03:27:13.272Z,81.40
2022-12-13T03:28:13.257Z,81.50
2022-12-13T03:29:13.094Z,81.80
2022-12-13T03:30:13.216Z,82.00
2022-12-13T03:31:13.371Z,82.40
2022-12-13T03:32:13.640Z,82.30
2022-12-13T03:33:13.639Z,81.60
2022-12-13T03:34:13.636Z,79.50
2022-12-13T03:35:21.929Z,78.10
2022-12-13T03:36:13.633Z,77.10
2022-12-13T03:37:13.691Z,76.30
2022-12-13T03:39:13.352Z,76.10
2022-12-13T03:40:14.463Z,76.40
2022-12-13T03:42:13.376Z,76.30
2022-12-13T03:43:13.485Z,76.40
2022-12-13T03:44:13.558Z,76.20
2022-12-13T03:45:13.617Z,76.20
2022-12-13T03:46:13.217Z,76.20
2022-12-13T03:47:13.200Z,75.60
2022-12-13T03:48:13.448Z,75.70
2022-12-13T03:49:17.156Z,75.50
2022-12-13T03:50:26.912Z,76.00
2022-12-13T03:51:13.407Z,76.20
2022-12-13T03:52:13.755Z,75.70
2022-12-13T03:53:23.468Z,75.20
2022-12-13T03:54:13.218Z,75.80
2022-12-13T03:55:13.576Z,75.40
2022-12-13T03:56:13.820Z,76.00
2022-12-13T03:57:13.861Z,76.10
2022-12-13T03:58:13.062Z,76.30
2022-12-13T03:59:28.500Z,75.70
2022-12-13T04:01:13.565Z,75.80
2022-12-13T04:02:31.502Z,75.50
2022-12-13T04:03:17.567Z,75.70
2022-12-13T04:04:14.006Z,75.90
2022-12-13T04:06:13.601Z,76.60
2022-12-13T04:07:22.263Z,76.70
2022-12-13T04:09:13.373Z,75.20
2022-12-13T04:10:25.476Z,75.60
2022-12-13T04:11:13.807Z,75.00
2022-12-13T04:12:13.952Z,74.60
2022-12-13T04:13:12.883Z,74.40
2022-12-13T04:14:22.513Z,74.50
2022-12-13T04:15:13.675Z,74.80
2022-12-13T04:16:18.139Z,75.60
2022-12-13T04:17:13.255Z,75.30
2022-12-13T04:18:48.400Z,74.70
2022-12-13T04:19:13.260Z,75.00
2022-12-13T04:20:13.198Z,75.70
2022-12-13T04:21:13.248Z,75.50
2022-12-13T04:23:13.748Z,75.80
2022-12-13T04:24:31.767Z,76.10
2022-12-13T04:25:13.720Z,75.60
2022-12-13T04:26:12.931Z,75.40
2022-12-13T04:27:12.877Z,75.60
2022-12-13T04:28:22.253Z,74.90
2022-12-13T04:29:12.816Z,74.90
2022-12-13T04:30:13.919Z,74.90
2022-12-13T04:32:26.404Z,75.50
2022-12-13T04:33:13.153Z,75.30
2022-12-13T04:34:13.067Z,75.30
2022-12-13T04:35:44.871Z,74.60
2022-12-13T04:36:13.907Z,74.50
2022-12-13T04:37:18.327Z,74.30
2022-12-13T04:38:13.239Z,74.00
2022-12-13T04:39:22.648Z,73.80
2022-12-13T04:40:12.921Z,73.60
2022-12-13T04:41:13.351Z,73.70
2022-12-13T04:42:13.251Z,74.30
2022-12-13T04:43:13.427Z,74.20
2022-12-13T04:44:28.238Z,73.50
2022-12-13T04:45:14.058Z,73.10
2022-12-13T04:46:13.127Z,73.40
2022-12-13T04:47:13.359Z,74.30
2022-12-13T04:48:13.248Z,74.70
2022-12-13T04:49:13.115Z,74.60
2022-12-13T04:50:13.024Z,73.80
2022-12-13T04:51:12.905Z,73.80
2022-12-13T04:52:13.425Z,73.90
2022-12-13T04:53:13.684Z,74.20
2022-12-13T04:54:24.222Z,74.10
2022-12-13T04:55:14.103Z,74.30
2022-12-13T04:56:13.378Z,74.10
2022-12-13T04:57:13.323Z,74.50
2022-12-13T04:58:16.087Z,74.20
2022-12-13T04:59:13.464Z,74.10
2022-12-13T05:00:14.761Z,74.30
2022-12-13T05:01:14.003Z,74.40
2022-12-13T05:02:12.966Z,74.00
2022-12-13T05:03:12.808Z,73.70
2022-12-13T05:04:14.123Z,73.60
2022-12-13T05:05:13.433Z,73.70
2022-12-13T05:06:26.698Z,73.60
2022-12-13T05:07:13.776Z,74.10
2022-12-13T05:08:13.659Z,73.90
2022-12-13T05:09:13.636Z,74.30
2022-12-13T05:10:15.549Z,74.80
2022-12-13T05:11:13.236Z,74.80
2022-12-13T05:12:22.341Z,74.30
2022-12-13T05:13:13.588Z,74.30
2022-12-13T05:14:13.833Z,74.40
2022-12-13T05:15:13.254Z,73.70
2022-12-13T05:16:13.600Z,74.20
2022-12-13T05:17:13.769Z,73.50
2022-12-13T05:18:13.732Z,74.20
2022-12-13T05:19:13.666Z,74.60
2022-12-13T05:20:18.696Z,74.50
2022-12-13T05:21:13.636Z,74.40
2022-12-13T05:22:19.196Z,74.70
2022-12-13T05:23:22.881Z,74.70
2022-12-13T05:24:13.104Z,75.10
2022-12-13T05:25:13.417Z,75.10
2022-12-13T05:26:14.063Z,75.00
2022-12-13T05:27:24.881Z,74.50
2022-12-13T05:28:28.306Z,74.20
2022-12-13T05:29:12.858Z,74.20
2022-12-13T05:30:34.407Z,74.70
2022-12-13T05:31:23.626Z,74.90
2022-12-13T05:33:12.847Z,75.30
2022-12-13T05:34:18.767Z,74.40
2022-12-13T05:35:14.576Z,73.90
2022-12-13T05:36:13.732Z,73.30
2022-12-13T05:37:14.103Z,73.20
2022-12-13T05:38:13.518Z,72.90
2022-12-13T05:39:27.571Z,73.10
2022-12-13T05:40:18.521Z,73.00
2022-12-13T05:41:13.587Z,72.90
2022-12-13T05:42:13.800Z,72.80
2022-12-13T05:43:21.366Z,72.80
2022-12-13T05:44:13.448Z,72.50
2022-12-13T05:45:13.673Z,73.00
2022-12-13T05:46:41.476Z,72.60
2022-12-13T05:47:19.194Z,73.10
2022-12-13T05:48:13.331Z,73.30
2022-12-13T05:49:13.229Z,72.70
2022-12-13T05:50:13.173Z,72.20
2022-12-13T05:51:13.539Z,71.50
2022-12-13T05:52:14.134Z,71.30
2022-12-13T05:53:13.468Z,72.00
2022-12-13T05:54:13.056Z,72.00
2022-12-13T05:55:13.332Z,72.60
2022-12-13T05:56:13.458Z,72.80
2022-12-13T05:57:13.615Z,72.80
2022-12-13T05:58:13.686Z,73.00
2022-12-13T05:59:13.672Z,73.30
2022-12-13T06:00:29.791Z,72.40
2022-12-13T06:01:13.902Z,72.50
2022-12-13T06:02:16.844Z,72.10
2022-12-13T06:03:13.281Z,72.10
2022-12-13T06:04:43.236Z,72.20
2022-12-13T06:05:13.517Z,72.50
2022-12-13T06:06:13.759Z,72.40
2022-12-13T06:07:14.018Z,72.70
2022-12-13T06:08:24.500Z,72.90
2022-12-13T06:09:13.406Z,72.50
2022-12-13T06:10:13.316Z,72.70
2022-12-13T06:11:12.981Z,72.90
2022-12-13T06:12:32.041Z,72.80
2022-12-13T06:13:21.988Z,72.20
2022-12-13T06:14:22.756Z,72.60
2022-12-13T06:15:21.698Z,73.40
2022-12-13T06:16:26.582Z,72.70
2022-12-13T06:17:14.047Z,72.70
2022-12-13T06:18:13.133Z,72.60
2022-12-13T06:19:13.039Z,73.20
2022-12-13T06:20:23.454Z,73.60
2022-12-13T06:22:13.841Z,72.00
2022-12-13T06:23:13.759Z,71.80
2022-12-13T06:24:13.652Z,71.90
2022-12-13T06:25:30.022Z,72.80
2022-12-13T06:26:14.144Z,73.50
2022-12-13T06:27:13.159Z,73.80
2022-12-13T06:28:13.270Z,73.90
2022-12-13T06:29:13.189Z,74.10
2022-12-13T06:32:13.222Z,73.90
2022-12-13T06:33:13.466Z,73.80
2022-12-13T06:34:15.358Z,73.90
2022-12-13T06:35:28.476Z,74.50
2022-12-13T06:36:13.848Z,74.40
2022-12-13T06:37:13.731Z,74.10
2022-12-13T06:38:13.806Z,74.50
2022-12-13T06:39:21.631Z,74.10
2022-12-13T06:40:13.571Z,73.50
2022-12-13T06:41:18.347Z,73.30
2022-12-13T06:42:14.136Z,72.70
2022-12-13T06:43:13.329Z,72.40
2022-12-13T06:44:13.330Z,73.00
2022-12-13T06:45:13.603Z,73.00
2022-12-13T06:46:13.633Z,73.30
2022-12-13T06:47:32.121Z,73.40
2022-12-13T06:48:18.744Z,73.20
2022-12-13T06:49:13.188Z,73.60
2022-12-13T06:50:13.144Z,73.50
2022-12-13T06:51:13.287Z,73.40
2022-12-13T06:52:13.299Z,73.20
2022-12-13T06:53:13.310Z,72.90
2022-12-13T06:54:13.501Z,72.60
2022-12-13T06:55:13.726Z,72.40
2022-12-13T06:56:13.765Z,72.70
2022-12-13T06:57:13.899Z,72.40
2022-12-13T06:58:12.921Z,71.70
2022-12-13T07:00:48.347Z,71.40
2022-12-13T07:01:14.980Z,71.60
2022-12-13T07:02:15.444Z,71.70
2022-12-13T07:03:13.046Z,71.90
2022-12-13T07:04:29.931Z,71.90
2022-12-13T07:06:13.738Z,72.30
2022-12-13T07:07:14.073Z,72.20
2022-12-13T07:08:13.107Z,72.50
2022-12-13T07:09:13.543Z,72.80
2022-12-13T07:10:21.835Z,72.40
2022-12-13T07:11:14.046Z,71.70
2022-12-13T07:12:13.201Z,71.80
2022-12-13T07:13:13.402Z,72.30
2022-12-13T07:14:13.441Z,72.20
2022-12-13T07:15:13.549Z,72.20
2022-12-13T07:16:13.697Z,71.80
2022-12-13T07:17:13.941Z,71.80
2022-12-13T07:18:13.548Z,72.40
2022-12-13T07:19:24.193Z,72.10
2022-12-13T07:20:13.508Z,72.60
2022-12-13T07:21:21.561Z,72.60
2022-12-13T07:22:13.208Z,72.80
2022-12-13T07:23:13.619Z,72.90
2022-12-13T07:24:14.252Z,72.90
2022-12-13T07:25:28.539Z,72.90
2022-12-13T07:26:13.431Z,72.30
2022-12-13T07:27:13.788Z,71.80
2022-12-13T07:28:13.824Z,71.90
2022-12-13T07:29:13.873Z,72.10
2022-12-13T07:30:13.661Z,72.30
2022-12-13T07:31:13.613Z,72.50
2022-12-13T07:32:13.471Z,72.90
2022-12-13T07:33:13.427Z,72.70
2022-12-13T07:34:15.695Z,73.00
2022-12-13T07:35:13.063Z,73.40
2022-12-13T07:36:12.963Z,73.10
2022-12-13T07:37:31.048Z,73.30
2022-12-13T07:38:13.422Z,73.70
2022-12-13T07:39:13.532Z,73.80
2022-12-13T07:40:13.531Z,73.60
2022-12-13T07:42:13.264Z,74.30
2022-12-13T07:43:13.615Z,74.20
2022-12-13T07:44:13.599Z,73.30
2022-12-13T07:45:13.884Z,72.50
2022-12-13T07:46:22.424Z,72.40
2022-12-13T07:47:13.201Z,72.40
2022-12-13T07:48:33.795Z,72.70
2022-12-13T07:49:13.752Z,72.60
2022-12-13T07:50:24.663Z,72.30
2022-12-13T07:51:13.919Z,72.30
2022-12-13T07:52:12.904Z,74.90
2022-12-13T07:53:12.878Z,76.30
2022-12-13T07:54:14.255Z,77.10
2022-12-13T07:55:13.416Z,77.80
2022-12-13T07:56:13.728Z,78.50
2022-12-13T07:57:14.077Z,78.60
2022-12-13T07:58:13.710Z,78.50
2022-12-13T07:59:14.061Z,78.00
2022-12-13T08:00:13.108Z,77.90
2022-12-13T08:01:13.191Z,77.80
2022-12-13T08:03:24.344Z,78.00
2022-12-13T08:04:14.106Z,77.90
2022-12-13T08:05:26.458Z,78.30
2022-12-13T08:06:13.158Z,78.80
2022-12-13T08:07:13.361Z,79.00
2022-12-13T08:08:13.418Z,79.00
2022-12-13T08:09:18.598Z,79.00
2022-12-13T08:10:13.888Z,79.10
2022-12-13T08:11:13.193Z,79.30
2022-12-13T08:12:15.638Z,79.40
2022-12-13T08:13:13.706Z,79.20
2022-12-13T08:14:14.117Z,79.70
2022-12-13T08:15:14.329Z,79.70
2022-12-13T08:16:27.573Z,79.20
2022-12-13T08:17:13.382Z,78.80
2022-12-13T08:18:13.405Z,78.80
2022-12-13T08:19:13.381Z,78.10
2022-12-13T08:20:22.200Z,78.70
2022-12-13T08:21:51.839Z,78.80
2022-12-13T08:22:23.795Z,78.80
2022-12-13T08:24:21.297Z,79.60
2022-12-13T08:25:13.217Z,79.90
2022-12-13T08:26:13.153Z,79.80
2022-12-13T08:27:13.537Z,79.50
2022-12-13T08:28:13.578Z,79.10
2022-12-13T08:29:13.576Z,79.00
2022-12-13T08:30:23.814Z,79.10
2022-12-13T08:31:14.285Z,79.10
2022-12-13T08:32:13.254Z,78.90
2022-12-13T08:34:13.663Z,78.60
2022-12-13T08:35:14.004Z,76.90
2022-12-13T08:36:13.360Z,75.70
2022-12-13T08:37:13.746Z,74.60
2022-12-13T08:38:14.590Z,74.10
2022-12-13T08:39:13.582Z,73.80
2022-12-13T08:40:13.797Z,73.80
2022-12-13T08:41:13.981Z,73.40
2022-12-13T08:42:17.043Z,73.10
2022-12-13T08:43:13.244Z,73.20
2022-12-13T08:44:13.548Z,73.30
2022-12-13T08:45:14.176Z,73.30
2022-12-13T08:46:13.706Z,73.00
2022-12-13T08:47:23.036Z,74.00
2022-12-13T08:48:13.588Z,75.70
2022-12-13T08:49:13.767Z,77.10
2022-12-13T08:50:14.579Z,77.50
2022-12-13T08:51:13.832Z,78.00
2022-12-13T08:52:14.077Z,78.00
2022-12-13T08:53:16.908Z,77.90
2022-12-13T08:54:13.876Z,77.90
2022-12-13T08:55:13.913Z,77.90
2022-12-13T08:56:12.946Z,78.40
2022-12-13T08:57:13.337Z,78.40
2022-12-13T08:58:13.335Z,77.50
2022-12-13T08:59:16.046Z,78.10
2022-12-13T09:00:13.792Z,78.20
2022-12-13T09:01:15.102Z,78.40
2022-12-13T09:02:13.615Z,78.60
2022-12-13T09:03:13.832Z,78.80
2022-12-13T09:04:13.953Z,78.80
2022-12-13T09:05:13.039Z,79.50
2022-12-13T09:06:14.450Z,79.20
2022-12-13T09:07:13.912Z,79.00
2022-12-13T09:08:24.424Z,79.10
2022-12-13T09:09:14.097Z,79.00
2022-12-13T09:10:25.685Z,79.00
2022-12-13T09:11:20.750Z,78.70
2022-12-13T09:12:30.878Z,78.60
2022-12-13T09:13:13.368Z,78.80
2022-12-13T09:14:14.313Z,78.30
2022-12-13T09:15:21.983Z,78.40
2022-12-13T09:16:14.216Z,78.40
2022-12-13T09:17:24.456Z,78.10
2022-12-13T09:18:15.333Z,78.00
2022-12-13T09:19:25.109Z,78.30
2022-12-13T09:20:28.951Z,78.40
2022-12-13T09:21:13.484Z,78.10
2022-12-13T09:22:14.610Z,77.50
2022-12-13T09:23:13.798Z,77.40
2022-12-13T09:24:23.995Z,77.30
2022-12-13T09:25:14.855Z,77.10
2022-12-13T09:26:15.151Z,77.30
2022-12-13T09:27:27.610Z,77.20
2022-12-13T09:28:13.569Z,77.00
2022-12-13T09:29:14.460Z,77.00
2022-12-13T09:30:13.720Z,77.00
2022-12-13T09:31:14.114Z,77.20
2022-12-13T09:32:13.463Z,77.00
2022-12-13T09:33:29.785Z,76.90
2022-12-13T09:34:13.265Z,76.60
2022-12-13T09:35:13.558Z,76.00
2022-12-13T09:36:13.719Z,75.10
2022-12-13T09:37:14.413Z,72.20
2022-12-13T09:38:13.699Z,70.50
2022-12-13T09:39:13.759Z,66.30
2022-12-13T09:40:16.268Z,66.10
2022-12-13T09:41:19.419Z,61.10
2022-12-13T09:42:12.897Z,59.60
2022-12-13T09:43:23.698Z,58.70
2022-12-13T09:44:32.523Z,57.20
2022-12-13T09:45:22.266Z,57.30
2022-12-13T09:46:22.562Z,56.20
2022-12-13T09:47:14.061Z,54.10
2022-12-13T09:48:13.589Z,55.10
2022-12-13T09:49:15.728Z,54.50
2022-12-13T09:50:14.750Z,55.00
2022-12-13T09:51:18.378Z,54.20
2022-12-13T09:52:21.297Z,51.80
2022-12-13T09:53:21.482Z,52.20
2022-12-13T09:54:13.596Z,54.10
2022-12-13T09:55:13.811Z,52.00
2022-12-13T09:56:14.032Z,49.00
2022-12-13T09:57:13.115Z,49.50
2022-12-13T09:58:13.862Z,48.90
2022-12-13T09:59:14.047Z,47.60
2022-12-13T10:00:13.383Z,49.30
2022-12-13T10:01:14.160Z,47.80
2022-12-13T10:02:14.094Z,46.90
2022-12-13T10:03:13.435Z,47.00
2022-12-13T10:04:13.602Z,48.10
2022-12-13T10:05:23.235Z,47.90
2022-12-13T10:06:13.592Z,48.80
2022-12-13T10:07:13.750Z,48.20
2022-12-13T10:08:13.847Z,49.30
2022-12-13T10:09:14.296Z,48.60
2022-12-13T10:10:13.373Z,48.10
2022-12-13T10:11:13.383Z,48.20
2022-12-13T10:12:14.555Z,47.20
2022-12-13T10:13:14.108Z,46.90
2022-12-13T10:14:13.044Z,47.60
2022-12-13T10:15:13.186Z,48.00
2022-12-13T10:16:13.444Z,46.60
2022-12-13T10:17:13.665Z,48.30
2022-12-13T10:18:13.781Z,48.60
2022-12-13T10:19:28.000Z,48.10
2022-12-13T10:20:13.659Z,46.40
2022-12-13T10:21:13.916Z,46.20
2022-12-13T10:22:13.576Z,45.90
2022-12-13T10:23:43.072Z,46.00
2022-12-13T10:24:27.699Z,46.20
2022-12-13T10:25:14.244Z,44.40
2022-12-13T10:26:14.574Z,45.20
2022-12-13T10:27:18.634Z,45.50
2022-12-13T10:28:13.981Z,45.90
2022-12-13T10:29:14.331Z,45.10
2022-12-13T10:30:21.788Z,44.60
2022-12-13T10:31:19.597Z,45.10
2022-12-13T10:32:20.745Z,45.10
2022-12-13T10:33:13.952Z,44.70
2022-12-13T10:34:14.710Z,45.40
2022-12-13T10:35:13.779Z,45.90
2022-12-13T10:36:13.913Z,45.30
2022-12-13T10:37:13.070Z,44.90
2022-12-13T10:38:16.596Z,45.70
2022-12-13T10:39:14.038Z,46.20
2022-12-13T10:40:13.396Z,46.10
2022-12-13T10:41:13.953Z,46.40
2022-12-13T10:42:13.127Z,45.90
2022-12-13T10:43:13.453Z,46.40
2022-12-13T10:44:13.551Z,47.40
2022-12-13T10:45:13.944Z,48.10
2022-12-13T10:46:13.122Z,48.50
2022-12-13T10:47:16.962Z,47.20
2022-12-13T10:48:14.926Z,46.80
2022-12-13T10:49:18.506Z,45.90
2022-12-13T10:50:18.513Z,46.10
2022-12-13T10:51:13.765Z,46.30
2022-12-13T10:52:15.603Z,46.40
2022-12-13T10:53:14.609Z,46.60
2022-12-13T10:54:13.586Z,45.80
2022-12-13T10:55:30.558Z,44.70
2022-12-13T10:56:14.966Z,43.10
2022-12-13T10:57:13.697Z,42.80
2022-12-13T10:58:14.333Z,43.50
2022-12-13T10:59:17.474Z,42.60
2022-12-13T11:00:15.462Z,43.80
2022-12-13T11:01:14.265Z,45.50
2022-12-13T11:02:13.490Z,47.00
2022-12-13T11:03:17.743Z,46.20
2022-12-13T11:04:14.062Z,46.60
2022-12-13T11:05:23.125Z,45.70
2022-12-13T11:06:13.874Z,45.00
2022-12-13T11:07:14.985Z,44.20
2022-12-13T11:08:13.220Z,44.20
2022-12-13T11:09:23.215Z,45.50
2022-12-13T11:10:14.659Z,45.60
2022-12-13T11:11:14.012Z,45.20
2022-12-13T11:12:13.076Z,46.60
2022-12-13T11:13:13.124Z,47.30
2022-12-13T11:14:13.119Z,48.40
2022-12-13T11:15:23.458Z,48.10
2022-12-13T11:16:14.067Z,48.60
2022-12-13T11:17:13.338Z,47.80
2022-12-13T11:18:13.438Z,47.90
2022-12-13T11:19:13.987Z,48.10
2022-12-13T11:20:13.344Z,47.90
2022-12-13T11:21:26.835Z,48.00
2022-12-13T11:22:13.956Z,47.40
2022-12-13T11:23:12.950Z,47.70
2022-12-13T11:24:12.823Z,49.00
2022-12-13T11:25:14.024Z,48.40
2022-12-13T11:26:24.469Z,47.40
2022-12-13T11:27:13.091Z,47.60
2022-12-13T11:28:37.424Z,47.70
2022-12-13T11:29:13.753Z,47.20
2022-12-13T11:30:13.957Z,47.10
2022-12-13T11:31:13.030Z,46.10
2022-12-13T11:32:13.624Z,46.50
2022-12-13T11:33:13.646Z,46.90
2022-12-13T11:34:13.767Z,46.60
2022-12-13T11:35:14.038Z,46.10
2022-12-13T11:36:13.557Z,46.20
2022-12-13T11:37:13.865Z,46.90
2022-12-13T11:38:13.721Z,47.80
2022-12-13T11:39:46.240Z,47.50
2022-12-13T11:40:18.564Z,48.00
2022-12-13T11:41:13.703Z,47.90
2022-12-13T11:42:13.678Z,47.30
2022-12-13T11:43:24.208Z,47.00
2022-12-13T11:45:13.577Z,46.10
2022-12-13T11:46:13.683Z,45.50
2022-12-13T11:47:13.719Z,45.40
2022-12-13T11:48:13.770Z,45.50
2022-12-13T11:49:13.699Z,46.70
2022-12-13T11:50:18.991Z,47.90
2022-12-13T11:51:12.962Z,48.50
2022-12-13T11:52:13.518Z,48.90
2022-12-13T11:53:13.808Z,49.00
2022-12-13T11:54:13.867Z,48.80
2022-12-13T11:55:32.724Z,47.90
2022-12-13T11:56:13.773Z,47.20
2022-12-13T11:57:13.992Z,45.30
2022-12-13T11:58:12.950Z,44.30
2022-12-13T11:59:22.315Z,43.40
2022-12-13T12:00:13.544Z,41.60
2022-12-13T12:01:13.508Z,43.70
2022-12-13T12:02:17.111Z,44.20
2022-12-13T12:03:13.876Z,45.20
2022-12-13T12:04:13.002Z,44.40
2022-12-13T12:05:12.921Z,44.50
2022-12-13T12:06:13.038Z,46.50
2022-12-13T12:07:31.971Z,46.60
2022-12-13T12:08:31.126Z,47.10
2022-12-13T12:09:13.568Z,48.00
2022-12-13T12:10:13.671Z,50.10
2022-12-13T12:11:14.248Z,50.50
2022-12-13T12:12:13.368Z,50.30
2022-12-13T12:13:13.090Z,50.00
2022-12-13T12:14:13.023Z,50.70
2022-12-13T12:15:15.165Z,51.20
2022-12-13T12:16:13.484Z,51.20
2022-12-13T12:17:13.734Z,51.90
2022-12-13T12:18:13.948Z,53.00
2022-12-13T12:19:13.031Z,53.40
2022-12-13T12:20:13.205Z,52.90
2022-12-13T12:21:13.252Z,53.30
2022-12-13T12:22:14.974Z,53.80
2022-12-13T12:23:13.708Z,53.30
2022-12-13T12:24:14.012Z,53.70
2022-12-13T12:25:42.365Z,52.20
2022-12-13T12:26:13.804Z,51.70
2022-12-13T12:27:13.744Z,51.30
2022-12-13T12:28:13.735Z,52.30
2022-12-13T12:29:14.175Z,53.10
2022-12-13T12:30:13.271Z,53.90
2022-12-13T12:31:13.585Z,53.60
2022-12-13T12:32:13.656Z,54.50
2022-12-13T12:33:14.005Z,54.50
2022-12-13T12:34:13.216Z,55.20
2022-12-13T12:35:13.739Z,55.80
2022-12-13T12:36:13.600Z,55.20
2022-12-13T12:37:13.565Z,56.00
2022-12-13T12:38:13.574Z,55.20
2022-12-13T12:39:14.412Z,56.20
2022-12-13T12:40:13.434Z,55.90
2022-12-13T12:41:16.432Z,56.90
2022-12-13T12:42:13.137Z,55.80
2022-12-13T12:43:15.703Z,55.60
2022-12-13T12:44:13.522Z,55.40
2022-12-13T12:45:17.448Z,55.20
2022-12-13T12:46:13.233Z,55.70
2022-12-13T12:47:36.211Z,55.70
2022-12-13T12:48:52.070Z,55.60
2022-12-13T12:49:13.905Z,55.30
2022-12-13T12:50:12.900Z,55.10
2022-12-13T12:51:12.955Z,54.80
2022-12-13T12:52:13.159Z,55.20
2022-12-13T12:53:13.437Z,55.20
2022-12-13T12:54:13.453Z,55.50
2022-12-13T12:55:13.454Z,55.60
2022-12-13T12:56:13.432Z,55.70
2022-12-13T12:57:13.560Z,55.90
2022-12-13T12:58:13.628Z,56.50
2022-12-13T12:59:13.689Z,55.70
2022-12-13T13:00:28.103Z,56.00
2022-12-13T13:01:13.027Z,56.30
2022-12-13T13:02:13.041Z,56.40
2022-12-13T13:03:17.419Z,56.00
2022-12-13T13:04:13.798Z,56.30
2022-12-13T13:05:13.951Z,56.20
2022-12-13T13:06:13.350Z,56.40
2022-12-13T13:07:22.450Z,56.70
2022-12-13T13:08:13.597Z,57.10
2022-12-13T13:09:13.781Z,57.10
2022-12-13T13:10:16.555Z,57.40
2022-12-13T13:11:25.046Z,57.70
2022-12-13T13:12:28.762Z,58.40